createdAt,value
2023-05-21T00:00:17.390Z,18.33
2023-05-21T00:05:24.875Z,17.60
2023-05-21T00:10:32.009Z,18.10
2023-05-21T00:15:40.348Z,17.97
2023-05-21T00:20:47.858Z,21.00
2023-05-21T00:25:55.486Z,17.17
2023-05-21T00:31:03.042Z,18.03
2023-05-21T00:36:10.950Z,19.80
2023-05-21T00:41:19.469Z,19.07
2023-05-21T00:46:28.189Z,16.87
2023-05-21T00:51:35.411Z,19.50
2023-05-21T00:56:42.755Z,16.73
2023-05-21T01:01:51.711Z,17.03
2023-05-21T01:06:59.090Z,19.60
2023-05-21T01:12:07.028Z,18.57
2023-05-21T01:17:16.038Z,19.87
2023-05-21T01:22:25.567Z,17.40
2023-05-21T01:27:32.534Z,19.70
2023-05-21T01:32:58.598Z,16.80
2023-05-21T01:38:24.649Z,19.07
2023-05-21T01:43:36.937Z,17.67
2023-05-21T01:48:46.159Z,18.10
2023-05-21T01:53:53.629Z,19.53
2023-05-21T01:59:02.220Z,19.57
2023-05-21T02:04:09.370Z,21.33
2023-05-21T02:09:16.667Z,18.07
2023-05-21T02:14:25.182Z,19.10
2023-05-21T02:19:32.283Z,19.90
2023-05-21T02:24:39.252Z,19.23
2023-05-21T02:29:46.377Z,21.23
2023-05-21T02:34:53.648Z,17.87
2023-05-21T02:40:00.627Z,18.83
2023-05-21T02:45:11.941Z,21.03
2023-05-21T02:50:19.100Z,18.43
2023-05-21T02:55:25.948Z,18.80
2023-05-21T03:00:47.800Z,20.60
2023-05-21T03:05:55.016Z,20.80
2023-05-21T03:11:02.020Z,19.37
2023-05-21T03:16:09.288Z,20.13
2023-05-21T03:21:18.331Z,20.57
2023-05-21T03:26:25.970Z,20.50
2023-05-21T03:31:33.241Z,20.33
2023-05-21T03:36:40.488Z,19.90
2023-05-21T03:41:47.518Z,19.50
2023-05-21T03:46:54.345Z,19.30
2023-05-21T03:52:01.562Z,18.30
2023-05-21T03:57:08.673Z,19.83
2023-05-21T04:02:15.664Z,17.20
2023-05-21T04:07:23.019Z,18.23
2023-05-21T04:12:29.887Z,17.23
2023-05-21T04:17:36.757Z,18.23
2023-05-21T04:22:44.387Z,17.53
2023-05-21T04:27:51.928Z,17.60
2023-05-21T04:33:00.744Z,17.77
2023-05-21T04:38:09.097Z,19.10
2023-05-21T04:43:17.507Z,18.30
2023-05-21T04:48:29.233Z,20.40
2023-05-21T04:53:36.335Z,17.77
2023-05-21T04:58:43.478Z,18.27
2023-05-21T05:03:50.557Z,17.73
2023-05-21T05:08:57.586Z,15.47
2023-05-21T05:14:08.304Z,17.30
2023-05-21T05:19:15.522Z,19.33
2023-05-21T05:24:22.824Z,20.47
2023-05-21T05:29:29.684Z,19.23
2023-05-21T05:34:36.578Z,19.10
2023-05-21T05:39:43.622Z,18.20
2023-05-21T05:44:50.781Z,20.73
2023-05-21T05:49:57.697Z,19.83
2023-05-21T05:55:06.258Z,20.00
2023-05-21T06:00:14.136Z,19.13
2023-05-21T06:05:21.305Z,23.33
2023-05-21T06:10:28.233Z,20.40
2023-05-21T06:15:35.591Z,20.67
2023-05-21T06:20:42.518Z,20.97
2023-05-21T06:25:49.302Z,18.93
2023-05-21T06:30:56.179Z,20.87
2023-05-21T06:36:03.541Z,19.30
2023-05-21T06:41:11.314Z,19.50
2023-05-21T06:46:18.686Z,17.33
2023-05-21T06:51:25.689Z,20.20
2023-05-21T06:56:32.668Z,15.87
2023-05-21T07:01:41.220Z,17.43
2023-05-21T07:06:49.099Z,17.97
2023-05-21T07:11:56.431Z,15.97
2023-05-21T07:17:03.447Z,15.70
2023-05-21T07:22:10.656Z,15.67
2023-05-21T07:27:25.491Z,18.20
2023-05-21T07:32:27.340Z,16.70
2023-05-21T07:37:34.360Z,16.07
2023-05-21T07:42:42.232Z,14.93
2023-05-21T07:47:49.343Z,16.67
2023-05-21T07:52:56.412Z,30.73
2023-05-21T07:58:03.829Z,15.07
2023-05-21T08:03:12.562Z,14.83
2023-05-21T08:08:22.297Z,13.73
2023-05-21T08:13:29.316Z,14.73
2023-05-21T08:18:36.262Z,15.30
2023-05-21T08:23:43.383Z,15.07
2023-05-21T08:28:50.349Z,14.27
2023-05-21T08:33:57.410Z,14.57
2023-05-21T08:39:04.576Z,13.23
2023-05-21T08:44:14.421Z,12.70
2023-05-21T08:49:26.986Z,11.47
2023-05-21T08:54:32.997Z,11.70
2023-05-21T08:59:41.776Z,13.27
2023-05-21T09:04:50.269Z,11.13
2023-05-21T09:10:04.140Z,12.20
2023-05-21T09:15:11.570Z,14.70
2023-05-21T09:20:19.348Z,10.70
2023-05-21T09:25:29.781Z,11.87
2023-05-21T09:30:36.809Z,11.93
2023-05-21T09:35:49.808Z,11.60
2023-05-21T09:40:58.431Z,10.77
2023-05-21T09:46:05.408Z,11.50
2023-05-21T09:51:18.850Z,10.90
2023-05-21T09:56:30.440Z,10.80
2023-05-21T10:01:38.237Z,10.80
2023-05-21T10:06:50.059Z,10.50
2023-05-21T10:11:58.852Z,11.03
2023-05-21T10:17:07.964Z,11.63
2023-05-21T10:22:17.215Z,14.23
2023-05-21T10:27:24.771Z,11.30
2023-05-21T10:32:33.169Z,11.73
2023-05-21T10:37:41.083Z,11.03
2023-05-21T10:43:12.994Z,9.73
2023-05-21T10:48:49.705Z,11.20
2023-05-21T10:54:15.947Z,10.43
2023-05-21T10:59:47.847Z,15.07
2023-05-21T11:05:05.588Z,10.77
2023-05-21T11:10:44.384Z,9.77
2023-05-21T11:16:08.683Z,13.30
2023-05-21T11:21:21.378Z,12.90
2023-05-21T11:26:47.978Z,7.90
2023-05-21T11:32:06.192Z,12.67
2023-05-21T11:37:26.877Z,11.17
2023-05-21T11:42:41.881Z,13.73
2023-05-21T11:47:50.775Z,10.97
2023-05-21T11:52:58.664Z,13.07
2023-05-21T11:58:06.476Z,11.13
2023-05-21T12:03:16.900Z,14.10
2023-05-21T12:08:27.355Z,10.20
2023-05-21T12:13:34.394Z,9.30
2023-05-21T12:18:41.624Z,12.20
2023-05-21T12:23:48.745Z,12.30
2023-05-21T12:28:57.507Z,8.63
2023-05-21T12:34:04.501Z,11.03
2023-05-21T12:39:12.272Z,9.37
2023-05-21T12:44:20.728Z,9.83
2023-05-21T12:49:38.263Z,8.53
2023-05-21T12:54:49.251Z,10.77
2023-05-21T13:00:00.474Z,11.67
2023-05-21T13:05:10.598Z,9.97
2023-05-21T13:10:18.484Z,8.20
2023-05-21T13:15:26.071Z,8.33
2023-05-21T13:20:33.725Z,10.97
2023-05-21T13:25:40.840Z,8.33
2023-05-21T13:30:48.088Z,8.47
2023-05-21T13:35:55.478Z,9.17
2023-05-21T13:41:02.703Z,8.73
2023-05-21T13:46:09.862Z,9.93
2023-05-21T13:51:30.785Z,9.73
2023-05-21T13:56:26.960Z,9.03
2023-05-21T14:01:34.265Z,8.43
2023-05-21T14:06:41.582Z,7.57
2023-05-21T14:11:48.822Z,9.93
2023-05-21T14:16:56.091Z,10.90
2023-05-21T14:22:03.311Z,8.73
2023-05-21T14:27:10.281Z,10.37
2023-05-21T14:32:18.708Z,9.00
2023-05-21T14:37:25.798Z,10.47
2023-05-21T14:42:32.847Z,7.73
2023-05-21T14:47:40.173Z,8.13
2023-05-21T14:52:47.168Z,8.70
2023-05-21T14:57:54.142Z,8.33
2023-05-21T15:03:01.670Z,10.50
2023-05-21T15:08:10.300Z,9.63
2023-05-21T15:13:17.186Z,11.10
2023-05-21T15:18:25.105Z,9.73
2023-05-21T15:23:32.993Z,8.33
2023-05-21T15:28:39.776Z,8.57
2023-05-21T15:33:46.751Z,11.43
2023-05-21T15:38:54.126Z,10.03
2023-05-21T15:44:01.977Z,7.83
2023-05-21T15:49:09.904Z,10.67
2023-05-21T15:54:17.251Z,11.10
2023-05-21T15:59:26.071Z,9.27
2023-05-21T16:04:34.355Z,9.17
2023-05-21T16:09:41.774Z,9.30
2023-05-21T16:14:53.704Z,10.60
2023-05-21T16:20:01.380Z,9.27
2023-05-21T16:25:09.949Z,10.43
2023-05-21T16:30:16.715Z,10.33
2023-05-21T16:35:23.531Z,8.03
2023-05-21T16:40:32.135Z,11.43
2023-05-21T16:45:47.210Z,9.80
2023-05-21T16:50:54.279Z,9.80
2023-05-21T16:56:01.079Z,11.63
2023-05-21T17:01:08.378Z,10.57
2023-05-21T17:06:15.283Z,9.03
2023-05-21T17:11:22.262Z,10.33
2023-05-21T17:16:29.211Z,10.90
2023-05-21T17:21:36.329Z,9.97
2023-05-21T17:26:43.051Z,10.63
2023-05-21T17:31:49.961Z,8.77
2023-05-21T17:36:58.125Z,8.50
2023-05-21T17:42:05.801Z,9.27
2023-05-21T17:47:13.442Z,9.00
2023-05-21T17:52:20.405Z,9.37
2023-05-21T17:57:27.206Z,9.83
2023-05-21T18:02:35.152Z,10.10
2023-05-21T18:07:42.553Z,8.97
2023-05-21T18:12:49.415Z,10.37
2023-05-21T18:17:56.574Z,12.27
2023-05-21T18:23:04.028Z,10.07
2023-05-21T18:28:12.163Z,10.30
2023-05-21T18:33:19.046Z,11.53
2023-05-21T18:38:26.751Z,9.70
2023-05-21T18:43:33.956Z,11.70
2023-05-21T18:48:40.845Z,13.57
2023-05-21T18:53:47.641Z,11.00
2023-05-21T18:58:55.660Z,10.57
2023-05-21T19:04:02.967Z,10.90
2023-05-21T19:09:10.198Z,12.77
2023-05-21T19:14:17.299Z,11.50
2023-05-21T19:19:24.578Z,10.50
2023-05-21T19:24:31.575Z,11.37
2023-05-21T19:29:38.635Z,10.57
2023-05-21T19:34:47.146Z,10.10
2023-05-21T19:39:54.454Z,9.60
2023-05-21T19:45:01.709Z,10.20
2023-05-21T19:50:10.899Z,16.50
2023-05-21T19:55:19.869Z,11.53
2023-05-21T20:00:26.828Z,12.23
2023-05-21T20:05:33.865Z,12.70
2023-05-21T20:10:41.021Z,10.40
2023-05-21T20:15:48.363Z,10.53
2023-05-21T20:20:55.866Z,12.63
2023-05-21T20:26:02.824Z,12.03
2023-05-21T20:31:09.819Z,12.40
2023-05-21T20:36:18.049Z,17.13
2023-05-21T20:41:25.562Z,11.37
2023-05-21T20:46:34.506Z,10.67
2023-05-21T20:51:44.718Z,12.07
2023-05-21T20:56:53.481Z,12.33
2023-05-21T21:02:00.670Z,11.00
2023-05-21T21:07:08.578Z,12.63
2023-05-21T21:12:26.217Z,12.73
2023-05-21T21:17:24.588Z,11.53
2023-05-21T21:22:31.935Z,10.50
2023-05-21T21:27:39.186Z,12.63
2023-05-21T21:32:48.211Z,11.90
2023-05-21T21:37:55.719Z,11.67
2023-05-21T21:43:02.635Z,12.27
2023-05-21T21:48:10.233Z,11.27
2023-05-21T21:53:17.131Z,12.63
2023-05-21T21:58:24.111Z,12.27
2023-05-21T22:03:34.814Z,12.03
2023-05-21T22:08:41.996Z,11.97
2023-05-21T22:13:49.239Z,10.37
2023-05-21T22:18:57.757Z,10.77
2023-05-21T22:24:04.997Z,11.67
2023-05-21T22:29:12.125Z,12.23
2023-05-21T22:34:19.154Z,12.57
2023-05-21T22:39:26.189Z,13.00
2023-05-21T22:44:33.379Z,10.57
2023-05-21T22:49:40.967Z,11.73
2023-05-21T22:54:48.078Z,12.10
2023-05-21T22:59:55.205Z,12.20
2023-05-21T23:05:02.084Z,11.60
2023-05-21T23:10:10.352Z,11.50
2023-05-21T23:15:17.413Z,11.20
2023-05-21T23:20:25.078Z,11.37
2023-05-21T23:25:32.239Z,14.37
2023-05-21T23:30:40.197Z,12.27
2023-05-21T23:35:47.612Z,13.63
2023-05-21T23:40:55.868Z,10.40
2023-05-21T23:46:03.670Z,12.90
2023-05-21T23:51:10.897Z,12.20
2023-05-21T23:56:17.948Z,11.97
